Home > Products > Valid Products > TAF

000
FTUS45 KBOI 181129
TAFMYL
TAF
KMYL 181129Z 1812/1912 VRB03KT P6SM VCSH SCT090 BKN200
     FM181900 21013G19KT P6SM SCT080 BKN200
     FM190200 VRB04KT P6SM SCT200=



000
FTUS45 KBOI 181129
TAFBNO
TAF
KBNO 181129Z 1812/1912 24006KT P6SM OVC200
     FM181900 23013KT P6SM SCT090 BKN200
     FM190200 29007KT P6SM SCT200=



000
FTUS45 KBOI 181129
TAFTWF
TAF
KTWF 181129Z 1812/1912 16007KT P6SM SCT150
     FM181600 30013KT P6SM BKN150
     FM190200 20006KT P6SM SCT120 OVC150=



000
FTUS45 KBOI 181129
TAFBKE
TAF
KBKE 181129Z 1812/1912 16009KT P6SM VCSH SCT070 BKN100
     FM181500 18005KT P6SM SCT150
     FM181900 31012KT P6SM SCT090 BKN200
     FM190500 VRB04KT P6SM SCT200=



000
FTUS45 KBOI 181129
TAFJER
TAF
KJER 181129Z 1812/1912 06006KT P6SM SCT150
     FM181700 25010KT P6SM BKN150
     FM190200 18005KT P6SM BKN150=



000
FTUS45 KBOI 181129
TAFBOI
TAF
KBOI 181129Z 1812/1912 VRB05KT P6SM VCSH SCT120 OVC200
     FM181600 31008KT P6SM SCT100 BKN200=



000
FTUS45 KBOI 181129
TAFJER
TAF
KJER 181129Z 1812/1912 06006KT P6SM SCT150
     FM181700 25010KT P6SM BKN150
     FM190200 18005KT P6SM BKN150=



000
FTUS45 KBOI 181129
TAFBKE
TAF
KBKE 181129Z 1812/1912 16009KT P6SM VCSH SCT070 BKN100
     FM181500 18005KT P6SM SCT150
     FM181900 31012KT P6SM SCT090 BKN200
     FM190500 VRB04KT P6SM SCT200=



000
FTUS45 KBOI 181129
TAFTWF
TAF
KTWF 181129Z 1812/1912 16007KT P6SM SCT150
     FM181600 30013KT P6SM BKN150
     FM190200 20006KT P6SM SCT120 OVC150=



000
FTUS45 KBOI 181129
TAFBOI
TAF
KBOI 181129Z 1812/1912 VRB05KT P6SM VCSH SCT120 OVC200
     FM181600 31008KT P6SM SCT100 BKN200=



000
FTUS45 KBOI 181129
TAFMYL
TAF
KMYL 181129Z 1812/1912 VRB03KT P6SM VCSH SCT090 BKN200
     FM181900 21013G19KT P6SM SCT080 BKN200
     FM190200 VRB04KT P6SM SCT200=



000
FTUS45 KBOI 181129
TAFBNO
TAF
KBNO 181129Z 1812/1912 24006KT P6SM OVC200
     FM181900 23013KT P6SM SCT090 BKN200
     FM190200 29007KT P6SM SCT200=



000
FTUS45 KBOI 181021 AAA
TAFBKE
TAF AMD
KBKE 181021Z 1810/1906 16012G19KT P6SM -SHRA SCT070 BKN100
     FM181100 16008KT P6SM VCSH SCT080 OVC150
     FM181500 18005KT P6SM SCT120 BKN150
     FM181900 31012KT P6SM SCT090 BKN200=



000
FTUS45 KBOI 181021 AAA
TAFBKE
TAF AMD
KBKE 181021Z 1810/1906 16012G19KT P6SM -SHRA SCT070 BKN100
     FM181100 16008KT P6SM VCSH SCT080 OVC150
     FM181500 18005KT P6SM SCT120 BKN150
     FM181900 31012KT P6SM SCT090 BKN200=



000
FTUS45 KBOI 180958 AAA
TAFJER
TAF AMD
KJER 180958Z 1810/1906 06006KT P6SM VCSH SCT080 OVC150
      TEMPO 1810/1811 -TSRA BKN120CB
     FM181800 25011KT P6SM FEW080 BKN200=



000
FTUS45 KBOI 180958 AAA
TAFJER
TAF AMD
KJER 180958Z 1810/1906 06006KT P6SM VCSH SCT080 OVC150
      TEMPO 1810/1811 -TSRA BKN120CB
     FM181800 25011KT P6SM FEW080 BKN200=



000
FTUS45 KBOI 180621 AAA
TAFBOI
TAF AMD
KBOI 180621Z 1806/1906 13006KT P6SM VCSH SCT100 OVC200
     FM180800 14008KT P6SM VCTS SCT090CB OVC150
      TEMPO 1808/1810 VRB15G25KT -TSRA BKN080CB
     FM181600 31008KT P6SM SCT100 BKN200=



000
FTUS45 KBOI 180621 AAA
TAFBOI
TAF AMD
KBOI 180621Z 1806/1906 13006KT P6SM VCSH SCT100 OVC200
     FM180800 14008KT P6SM VCTS SCT090CB OVC150
      TEMPO 1808/1810 VRB15G25KT -TSRA BKN080CB
     FM181600 31008KT P6SM SCT100 BKN200=



000
FTUS45 KBOI 180520
TAFTWF
TAF
KTWF 180520Z 1806/1906 16007KT P6SM VCSH SCT090 OVC150
      TEMPO 1809/1812 -SHRA BKN080
     FM181800 30013KT P6SM FEW090 BKN200
     FM190200 20006KT P6SM SCT100 BKN200=



000
FTUS45 KBOI 180520
TAFMYL
TAF
KMYL 180520Z 1806/1906 VRB03KT P6SM SCT090 BKN200
     FM181200 VRB03KT P6SM VCSH SCT070 OVC120
     FM181900 21012G23KT P6SM SCT080 BKN200
     FM190200 VRB05KT P6SM FEW080 BKN200=



000
FTUS45 KBOI 180520
TAFBNO
TAF
KBNO 180520Z 1806/1906 26006KT P6SM SCT090 OVC200
     FM180900 24006KT P6SM VCSH BKN080 OVC150
     FM181200 VRB04KT P6SM SCT080 BKN150
     FM181900 23013KT P6SM SCT080 BKN200
     FM190200 29007KT P6SM FEW080 BKN200=



000
FTUS45 KBOI 180520
TAFBOI
TAF
KBOI 180520Z 1806/1906 13006KT P6SM SCT100 OVC200
     FM180800 14008KT P6SM VCTS SCT090CB OVC150
      TEMPO 1808/1810 VRB15G25KT -TSRA BKN080CB
     FM181400 VRB06KT P6SM SCT100 BKN200
     FM181700 31010KT P6SM SCT100 BKN200
     FM190300 VRB05KT P6SM BKN200=



000
FTUS45 KBOI 180520
TAFBKE
TAF
KBKE 180520Z 1806/1906 VRB04KT P6SM SCT100 OVC200
     FM181000 VRB05KT P6SM -SHRA BKN080 OVC150
     FM181500 VRB05KT P6SM VCSH SCT080 BKN150
     FM181900 31012KT P6SM SCT090 BKN200=



000
FTUS45 KBOI 180520
TAFJER
TAF
KJER 180520Z 1806/1906 06006KT P6SM VCSH SCT080 OVC150
      TEMPO 1809/1812 -SHRA BKN080
     FM181800 25011KT P6SM FEW080 BKN200=



000
FTUS45 KBOI 180520
TAFJER
TAF
KJER 180520Z 1806/1906 06006KT P6SM VCSH SCT080 OVC150
      TEMPO 1809/1812 -SHRA BKN080
     FM181800 25011KT P6SM FEW080 BKN200=



000
FTUS45 KBOI 180520
TAFTWF
TAF
KTWF 180520Z 1806/1906 16007KT P6SM VCSH SCT090 OVC150
      TEMPO 1809/1812 -SHRA BKN080
     FM181800 30013KT P6SM FEW090 BKN200
     FM190200 20006KT P6SM SCT100 BKN200=



000
FTUS45 KBOI 180520
TAFBKE
TAF
KBKE 180520Z 1806/1906 VRB04KT P6SM SCT100 OVC200
     FM181000 VRB05KT P6SM -SHRA BKN080 OVC150
     FM181500 VRB05KT P6SM VCSH SCT080 BKN150
     FM181900 31012KT P6SM SCT090 BKN200=



000
FTUS45 KBOI 180520
TAFBOI
TAF
KBOI 180520Z 1806/1906 13006KT P6SM SCT100 OVC200
     FM180800 14008KT P6SM VCTS SCT090CB OVC150
      TEMPO 1808/1810 VRB15G25KT -TSRA BKN080CB
     FM181400 VRB06KT P6SM SCT100 BKN200
     FM181700 31010KT P6SM SCT100 BKN200
     FM190300 VRB05KT P6SM BKN200=



000
FTUS45 KBOI 180520
TAFMYL
TAF
KMYL 180520Z 1806/1906 VRB03KT P6SM SCT090 BKN200
     FM181200 VRB03KT P6SM VCSH SCT070 OVC120
     FM181900 21012G23KT P6SM SCT080 BKN200
     FM190200 VRB05KT P6SM FEW080 BKN200=



000
FTUS45 KBOI 172322
TAFBKE
TAF
KBKE 172322Z 1800/1824 29008KT P6SM FEW100 BKN200
     FM180300 VRB04KT P6SM SCT100 OVC200
     FM180900 VRB05KT P6SM -SHRA BKN080 OVC150
     FM181500 VRB05KT P6SM VCSH SCT080 BKN150
     FM181900 31011KT P6SM SCT090 BKN200=



000
FTUS45 KBOI 172322
TAFMYL
TAF
KMYL 172322Z 1800/1824 VRB05KT P6SM SCT090 BKN200
     FM180900 VRB03KT P6SM VCSH SCT070 OVC120
     FM181900 21012G23KT P6SM SCT080 BKN200=



000
FTUS45 KBOI 172322
TAFTWF
TAF
KTWF 172322Z 1800/1824 VRB05KT P6SM FEW100 BKN200
     FM180300 15007KT P6SM VCSH SCT090 OVC150
     FM180900 19009KT P6SM -SHRA BKN090 OVC150
     FM181500 20008KT P6SM VCSH SCT090 OVC150
     FM181800 29013KT P6SM FEW090 BKN200=



000
FTUS45 KBOI 172322
TAFBOI
TAF
KBOI 172322Z 1800/1824 VRB05KT P6SM FEW100 BKN200
     FM180700 13008KT P6SM SCT100 OVC200
     FM180900 14008KT P6SM VCSH BKN100 OVC150
     FM181400 32007KT P6SM SCT100 BKN200=



000
FTUS45 KBOI 172322
TAFJER
TAF
KJER 172322Z 1800/1824 VRB05KT P6SM FEW100 BKN200
     FM180300 06006KT P6SM VCSH SCT080 OVC150
     FM180900 08006KT P6SM -SHRA BKN080 OVC150
     FM181500 VRB05KT P6SM VCSH SCT080 OVC150
     FM181800 25011KT P6SM FEW080 BKN200=



000
FTUS45 KBOI 172322
TAFTWF
TAF
KTWF 172322Z 1800/1824 VRB05KT P6SM FEW100 BKN200
     FM180300 15007KT P6SM VCSH SCT090 OVC150
     FM180900 19009KT P6SM -SHRA BKN090 OVC150
     FM181500 20008KT P6SM VCSH SCT090 OVC150
     FM181800 29013KT P6SM FEW090 BKN200=



000
FTUS45 KBOI 172322
TAFBKE
TAF
KBKE 172322Z 1800/1824 29008KT P6SM FEW100 BKN200
     FM180300 VRB04KT P6SM SCT100 OVC200
     FM180900 VRB05KT P6SM -SHRA BKN080 OVC150
     FM181500 VRB05KT P6SM VCSH SCT080 BKN150
     FM181900 31011KT P6SM SCT090 BKN200=



000
FTUS45 KBOI 172322
TAFJER
TAF
KJER 172322Z 1800/1824 VRB05KT P6SM FEW100 BKN200
     FM180300 06006KT P6SM VCSH SCT080 OVC150
     FM180900 08006KT P6SM -SHRA BKN080 OVC150
     FM181500 VRB05KT P6SM VCSH SCT080 OVC150
     FM181800 25011KT P6SM FEW080 BKN200=



000
FTUS45 KBOI 172322
TAFMYL
TAF
KMYL 172322Z 1800/1824 VRB05KT P6SM SCT090 BKN200
     FM180900 VRB03KT P6SM VCSH SCT070 OVC120
     FM181900 21012G23KT P6SM SCT080 BKN200=



000
FTUS45 KBOI 172322
TAFBNO
TAF
KBNO 172322Z 1800/1824 21013KT P6SM SCT090 BKN200
     FM180300 26006KT P6SM SCT090 OVC200
     FM180900 23006KT P6SM -SHRA BKN080 OVC150
     FM181200 VRB04KT P6SM SCT080 BKN150
     FM181900 22013KT P6SM SCT080 BKN200=



000
FTUS45 KBOI 172322
TAFBNO
TAF
KBNO 172322Z 1800/1824 21013KT P6SM SCT090 BKN200
     FM180300 26006KT P6SM SCT090 OVC200
     FM180900 23006KT P6SM -SHRA BKN080 OVC150
     FM181200 VRB04KT P6SM SCT080 BKN150
     FM181900 22013KT P6SM SCT080 BKN200=



000
FTUS45 KBOI 172322
TAFBOI
TAF
KBOI 172322Z 1800/1824 VRB05KT P6SM FEW100 BKN200
     FM180700 13008KT P6SM SCT100 OVC200
     FM180900 14008KT P6SM VCSH BKN100 OVC150
     FM181400 32007KT P6SM SCT100 BKN200=



000
FTUS45 KBOI 171932 AAA
TAFBKE
TAF AMD
KBKE 171932Z 1720/1818 11009KT P6SM BKN250
     FM180300 22005KT P6SM OVC200
      TEMPO 1810/1814 23006G18KT P6SM -SHRA BKN110
     FM181600 34006KT P6SM FEW110 BKN250=



000
FTUS45 KBOI 171932 AAA
TAFBKE
TAF AMD
KBKE 171932Z 1720/1818 11009KT P6SM BKN250
     FM180300 22005KT P6SM OVC200
      TEMPO 1810/1814 23006G18KT P6SM -SHRA BKN110
     FM181600 34006KT P6SM FEW110 BKN250=



000
FTUS45 KBOI 171729
TAFMYL
TAF
KMYL 171729Z 1718/1818 19012KT P6SM VCSH FEW090 BKN150
     FM180200 VRB04KT P6SM SCT090 OVC200
     FM181200 20006KT P6SM VCSH SCT070 OVC120=



000
FTUS45 KBOI 171729
TAFMYL
TAF
KMYL 171729Z 1718/1818 19012KT P6SM VCSH FEW090 BKN150
     FM180200 VRB04KT P6SM SCT090 OVC200
     FM181200 20006KT P6SM VCSH SCT070 OVC120=



000
FTUS45 KBOI 171726
TAFBKE
TAF
KBKE 171726Z 1718/1818 VRB03KT P6SM BKN200
     FM171900 18012KT P6SM BKN200
     FM180300 22005KT P6SM OVC200
      TEMPO 1810/1814 23006G18KT P6SM -SHRA BKN110
     FM181600 34006KT P6SM FEW110 BKN250=



000
FTUS45 KBOI 171726
TAFBKE
TAF
KBKE 171726Z 1718/1818 VRB03KT P6SM BKN200
     FM171900 18012KT P6SM BKN200
     FM180300 22005KT P6SM OVC200
      TEMPO 1810/1814 23006G18KT P6SM -SHRA BKN110
     FM181600 34006KT P6SM FEW110 BKN250=



000
FTUS45 KBOI 171720
TAFBNO
TAF
KBNO 171720Z 1718/1818 VRB04KT P6SM BKN200
     FM171900 20011G16KT P6SM SCT090 BKN200
     FM180200 24006KT P6SM OVC200
      TEMPO 1808/1812 24006G16KT P6SM -SHRA BKN110
     FM181600 24006KT P6SM SCT110=



000
FTUS45 KBOI 171720
TAFBOI
TAF
KBOI 171720Z 1718/1818 32006KT P6SM BKN200
     FM172000 13006KT P6SM BKN130 PROB30 1808/1812 VRB07G17KT P6SM
      -SHRA BKN110
     FM181200 32006KT P6SM VCSH BKN120 OVC200=



000
FTUS45 KBOI 171720
TAFJER
TAF
KJER 171720Z 1718/1818 06008KT P6SM BKN200
     FM180500 05006KT P6SM VCSH SCT080 OVC150
     FM181600 24011G23KT P6SM FEW110 BKN200 PROB30 1816/1818
      22008G16KT P6SM -SHRA BKN110=



000
FTUS45 KBOI 171720
TAFBNO
TAF
KBNO 171720Z 1718/1818 VRB04KT P6SM BKN200
     FM171900 20011G16KT P6SM SCT090 BKN200
     FM180200 24006KT P6SM OVC200
      TEMPO 1808/1812 24006G16KT P6SM -SHRA BKN110
     FM181600 24006KT P6SM SCT110=



000
FTUS45 KBOI 171720
TAFTWF
TAF
KTWF 171720Z 1718/1818 05006KT P6SM BKN200
     FM180400 15007KT P6SM VCSH SCT080 OVC150
     FM181000 21008G16KT P6SM -SHRA BKN130
     FM181700 26011G21KT P6SM FEW130 BKN200=



000
FTUS45 KBOI 171720
TAFTWF
TAF
KTWF 171720Z 1718/1818 05006KT P6SM BKN200
     FM180400 15007KT P6SM VCSH SCT080 OVC150
     FM181000 21008G16KT P6SM -SHRA BKN130
     FM181700 26011G21KT P6SM FEW130 BKN200=



000
FTUS45 KBOI 171720
TAFBOI
TAF
KBOI 171720Z 1718/1818 32006KT P6SM BKN200
     FM172000 13006KT P6SM BKN130 PROB30 1808/1812 VRB07G17KT P6SM
      -SHRA BKN110
     FM181200 32006KT P6SM VCSH BKN120 OVC200=



000
FTUS45 KBOI 171720
TAFJER
TAF
KJER 171720Z 1718/1818 06008KT P6SM BKN200
     FM180500 05006KT P6SM VCSH SCT080 OVC150
     FM181600 24011G23KT P6SM FEW110 BKN200 PROB30 1816/1818
      22008G16KT P6SM -SHRA BKN110=



000
FTUS45 KBOI 171127
TAFMYL
TAF
KMYL 171127Z 1712/1812 VRB03KT P6SM BKN200
     FM171800 19012KT P6SM FEW090 BKN200
     FM180200 VRB04KT P6SM SCT090 OVC200=



000
FTUS45 KBOI 171127
TAFBOI
TAF
KBOI 171127Z 1712/1812 13008KT P6SM BKN200
     FM172200 17008KT P6SM BKN200
     FM180400 14005KT P6SM VCSH SCT100 OVC200=



000
FTUS45 KBOI 171127
TAFBKE
TAF
KBKE 171127Z 1712/1812 VRB03KT P6SM SCT200
     FM171900 18012KT P6SM BKN200
     FM180100 VRB03KT P6SM OVC200=



000
FTUS45 KBOI 171127
TAFTWF
TAF
KTWF 171127Z 1712/1812 16009KT P6SM FEW100 SCT200
     FM171600 05006KT P6SM BKN200
     FM180400 15007KT P6SM VCSH SCT080 OVC150=



000
FTUS45 KBOI 171127
TAFBNO
TAF
KBNO 171127Z 1712/1812 VRB04KT P6SM BKN200
     FM171900 20011G16KT P6SM SCT090 BKN200
     FM180200 24006KT P6SM OVC200=



000
FTUS45 KBOI 171127
TAFJER
TAF
KJER 171127Z 1712/1812 05011KT P6SM VCSH FEW100 SCT200
     FM171400 06008KT P6SM BKN200
     FM180500 05006KT P6SM VCSH SCT080 OVC150=



000
FTUS45 KBOI 171127
TAFJER
TAF
KJER 171127Z 1712/1812 05011KT P6SM VCSH FEW100 SCT200
     FM171400 06008KT P6SM BKN200
     FM180500 05006KT P6SM VCSH SCT080 OVC150=



000
FTUS45 KBOI 171127
TAFMYL
TAF
KMYL 171127Z 1712/1812 VRB03KT P6SM BKN200
     FM171800 19012KT P6SM FEW090 BKN200
     FM180200 VRB04KT P6SM SCT090 OVC200=



000
FTUS45 KBOI 171127
TAFBOI
TAF
KBOI 171127Z 1712/1812 13008KT P6SM BKN200
     FM172200 17008KT P6SM BKN200
     FM180400 14005KT P6SM VCSH SCT100 OVC200=



000
FTUS45 KBOI 171127
TAFBNO
TAF
KBNO 171127Z 1712/1812 VRB04KT P6SM BKN200
     FM171900 20011G16KT P6SM SCT090 BKN200
     FM180200 24006KT P6SM OVC200=



000
FTUS45 KBOI 171127
TAFBKE
TAF
KBKE 171127Z 1712/1812 VRB03KT P6SM SCT200
     FM171900 18012KT P6SM BKN200
     FM180100 VRB03KT P6SM OVC200=



000
FTUS45 KBOI 171127
TAFTWF
TAF
KTWF 171127Z 1712/1812 16009KT P6SM FEW100 SCT200
     FM171600 05006KT P6SM BKN200
     FM180400 15007KT P6SM VCSH SCT080 OVC150=



000
FTUS45 KBOI 170520
TAFJER
TAF
KJER 170520Z 1706/1806 08007KT P6SM SCT200
     FM172000 VRB06KT P6SM FEW080 BKN200
     FM180200 06006KT P6SM SCT080 OVC150=



000
FTUS45 KBOI 170520
TAFBOI
TAF
KBOI 170520Z 1706/1806 13007KT P6SM BKN200
     FM171500 VRB05KT P6SM FEW080 BKN200
     FM172200 08006KT P6SM FEW080 BKN200
     FM180200 14004KT P6SM SCT080 BKN200=



000
FTUS45 KBOI 170520
TAFBNO
TAF
KBNO 170520Z 1706/1806 VRB04KT P6SM BKN200
     FM172000 17011KT P6SM FEW090 BKN200
     FM180400 24006KT P6SM SCT080 OVC200=



000
FTUS45 KBOI 170520
TAFBKE
TAF
KBKE 170520Z 1706/1806 VRB03KT P6SM FEW200
     FM171900 13008KT P6SM BKN200
     FM180300 25007KT P6SM OVC200=



000
FTUS45 KBOI 170520
TAFMYL
TAF
KMYL 170520Z 1706/1806 VRB03KT P6SM FEW100 BKN200
     FM171900 19012KT P6SM FEW090 BKN200
     FM180300 VRB04KT P6SM SCT090 OVC200=



000
FTUS45 KBOI 170520
TAFBOI
TAF
KBOI 170520Z 1706/1806 13007KT P6SM BKN200
     FM171500 VRB05KT P6SM FEW080 BKN200
     FM172200 08006KT P6SM FEW080 BKN200
     FM180200 14004KT P6SM SCT080 BKN200=



000
FTUS45 KBOI 170520
TAFMYL
TAF
KMYL 170520Z 1706/1806 VRB03KT P6SM FEW100 BKN200
     FM171900 19012KT P6SM FEW090 BKN200
     FM180300 VRB04KT P6SM SCT090 OVC200=



000
FTUS45 KBOI 170520
TAFTWF
TAF
KTWF 170520Z 1706/1806 16009KT P6SM SCT200
     FM171500 12006KT P6SM BKN200
     FM171700 05008KT P6SM FEW080 BKN200
     FM180200 15007KT P6SM SCT080 OVC150=



000
FTUS45 KBOI 170520
TAFTWF
TAF
KTWF 170520Z 1706/1806 16009KT P6SM SCT200
     FM171500 12006KT P6SM BKN200
     FM171700 05008KT P6SM FEW080 BKN200
     FM180200 15007KT P6SM SCT080 OVC150=



000
FTUS45 KBOI 170520
TAFJER
TAF
KJER 170520Z 1706/1806 08007KT P6SM SCT200
     FM172000 VRB06KT P6SM FEW080 BKN200
     FM180200 06006KT P6SM SCT080 OVC150=



000
FTUS45 KBOI 170520
TAFBKE
TAF
KBKE 170520Z 1706/1806 VRB03KT P6SM FEW200
     FM171900 13008KT P6SM BKN200
     FM180300 25007KT P6SM OVC200=



000
FTUS45 KBOI 170520
TAFBNO
TAF
KBNO 170520Z 1706/1806 VRB04KT P6SM BKN200
     FM172000 17011KT P6SM FEW090 BKN200
     FM180400 24006KT P6SM SCT080 OVC200=



000
FTUS45 KBOI 162320
TAFJER
TAF
KJER 162320Z 1700/1724 VRB05KT P6SM FEW080 BKN200
     FM170600 08007KT P6SM SCT200=



000
FTUS45 KBOI 162320
TAFBKE
TAF
KBKE 162320Z 1700/1724 17009KT P6SM FEW090
     FM170300 VRB03KT P6SM FEW200
     FM171000 14009KT P6SM BKN200=



000
FTUS45 KBOI 162320
TAFBNO
TAF
KBNO 162320Z 1700/1724 23009KT P6SM FEW090 BKN200
     FM170300 28005KT P6SM SCT200
     FM171000 VRB03KT P6SM SCT200
     FM172000 17010KT P6SM FEW090 BKN200=



000
FTUS45 KBOI 162320
TAFBKE
TAF
KBKE 162320Z 1700/1724 17009KT P6SM FEW090
     FM170300 VRB03KT P6SM FEW200
     FM171000 14009KT P6SM BKN200=



000
FTUS45 KBOI 162320
TAFBOI
TAF
KBOI 162320Z 1700/1724 VRB05KT P6SM FEW080 BKN200
     FM170500 13006KT P6SM FEW250
     FM172000 VRB05KT P6SM FEW080 BKN200=



000
FTUS45 KBOI 162320
TAFBNO
TAF
KBNO 162320Z 1700/1724 23009KT P6SM FEW090 BKN200
     FM170300 28005KT P6SM SCT200
     FM171000 VRB03KT P6SM SCT200
     FM172000 17010KT P6SM FEW090 BKN200=



000
FTUS45 KBOI 162320
TAFJER
TAF
KJER 162320Z 1700/1724 VRB05KT P6SM FEW080 BKN200
     FM170600 08007KT P6SM SCT200=



000
FTUS45 KBOI 162320
TAFTWF
TAF
KTWF 162320Z 1700/1724 VRB06KT P6SM SCT080 BKN200
     FM170300 18008KT P6SM SCT200
     FM171500 12006KT P6SM BKN200
     FM171700 06008KT P6SM FEW080 BKN200=



000
FTUS45 KBOI 162320
TAFMYL
TAF
KMYL 162320Z 1700/1724 17010KT P6SM SCT090 BKN200
     FM170300 VRB03KT P6SM FEW200
     FM172000 19012KT P6SM FEW090 BKN200=



000
FTUS45 KBOI 162320
TAFBOI
TAF
KBOI 162320Z 1700/1724 VRB05KT P6SM FEW080 BKN200
     FM170500 13006KT P6SM FEW250
     FM172000 VRB05KT P6SM FEW080 BKN200=



000
FTUS45 KBOI 162320
TAFMYL
TAF
KMYL 162320Z 1700/1724 17010KT P6SM SCT090 BKN200
     FM170300 VRB03KT P6SM FEW200
     FM172000 19012KT P6SM FEW090 BKN200=



000
FTUS45 KBOI 162320
TAFTWF
TAF
KTWF 162320Z 1700/1724 VRB06KT P6SM SCT080 BKN200
     FM170300 18008KT P6SM SCT200
     FM171500 12006KT P6SM BKN200
     FM171700 06008KT P6SM FEW080 BKN200=



000
FTUS45 KBOI 161900 AAA
TAFBNO
TAF AMD
KBNO 161900Z 1619/1718 19010G15KT P6SM FEW200
     FM170200 VRB05KT P6SM SCT150 BKN250=



000
FTUS45 KBOI 161900 AAA
TAFBNO
TAF AMD
KBNO 161900Z 1619/1718 19010G15KT P6SM FEW200
     FM170200 VRB05KT P6SM SCT150 BKN250=



000
FTUS45 KBOI 161749 CCB
TAFBOI
TAF COR
KBOI 161749Z 1618/1718 30006KT P6SM BKN200
      TEMPO 1618/1619 02007KT P6SM -SHRA BKN090 OVC150
     FM162000 29008KT P6SM FEW150
     FM170200 13007KT P6SM FEW250
     FM170900 14005KT P6SM BKN250=



000
FTUS45 KBOI 161749 CCB
TAFBOI
TAF COR
KBOI 161749Z 1618/1718 30006KT P6SM BKN200
      TEMPO 1618/1619 02007KT P6SM -SHRA BKN090 OVC150
     FM162000 29008KT P6SM FEW150
     FM170200 13007KT P6SM FEW250
     FM170900 14005KT P6SM BKN250=



000
FTUS45 KBOI 161748 CCA
TAFJER
TAF COR
KJER 161748Z 1618/1718 05007KT P6SM OVC200
      TEMPO 1618/1619 VRB10G20KT P6SM -SHRA SCT110 OVC200
     FM162000 32007KT P6SM SCT150
     FM170100 08007KT P6SM SKC
     FM171700 VRB05KT P6SM BKN250=



000
FTUS45 KBOI 161748 CCA
TAFJER
TAF COR
KJER 161748Z 1618/1718 05007KT P6SM OVC200
      TEMPO 1618/1619 VRB10G20KT P6SM -SHRA SCT110 OVC200
     FM162000 32007KT P6SM SCT150
     FM170100 08007KT P6SM SKC
     FM171700 VRB05KT P6SM BKN250=



000
FTUS45 KBOI 161727
TAFMYL
TAF
KMYL 161727Z 1618/1718 19007KT P6SM FEW110 BKN200
     FM162100 19011G21KT P6SM BKN150
     FM170300 VRB03KT P6SM FEW250
     FM170900 VRB05KT P6SM BKN250=



000
FTUS45 KBOI 161727
TAFMYL
TAF
KMYL 161727Z 1618/1718 19007KT P6SM FEW110 BKN200
     FM162100 19011G21KT P6SM BKN150
     FM170300 VRB03KT P6SM FEW250
     FM170900 VRB05KT P6SM BKN250=



000
FTUS45 KBOI 161724
TAFBKE
TAF
KBKE 161724Z 1618/1718 13005KT P6SM SKC
     FM162000 17006G15KT P6SM FEW150
     FM170200 25005KT P6SM SCT250
     FM170600 VRB03KT P6SM BKN250=



000
FTUS45 KBOI 161724
TAFBKE
TAF
KBKE 161724Z 1618/1718 13005KT P6SM SKC
     FM162000 17006G15KT P6SM FEW150
     FM170200 25005KT P6SM SCT250
     FM170600 VRB03KT P6SM BKN250=



000
FTUS45 KBOI 161720
TAFBOI
TAF
KBOI 161720Z 1618/1718 VRB05KT P6SM BKN200
     FM162000 29008KT P6SM FEW150
     FM170200 13007KT P6SM FEW250
     FM170900 14005KT P6SM BKN250=



000
FTUS45 KBOI 161720
TAFTWF
TAF
KTWF 161720Z 1618/1718 34009KT P6SM OVC200
     FM161900 33008KT P6SM SCT150
     FM170300 16007KT P6SM SKC
     FM171500 06007KT P6SM BKN250=



000
FTUS45 KBOI 161720
TAFTWF
TAF
KTWF 161720Z 1618/1718 34009KT P6SM OVC200
     FM161900 33008KT P6SM SCT150
     FM170300 16007KT P6SM SKC
     FM171500 06007KT P6SM BKN250=



000
FTUS45 KBOI 161720
TAFBOI
TAF
KBOI 161720Z 1618/1718 VRB05KT P6SM BKN200
     FM162000 29008KT P6SM FEW150
     FM170200 13007KT P6SM FEW250
     FM170900 14005KT P6SM BKN250=



000
FTUS45 KBOI 161720
TAFJER
TAF
KJER 161720Z 1618/1718 05007KT P6SM OVC200
     FM162000 32007KT P6SM SCT150
     FM170100 08007KT P6SM SKC
     FM171700 VRB05KT P6SM BKN250=



000
FTUS45 KBOI 161720
TAFJER
TAF
KJER 161720Z 1618/1718 05007KT P6SM OVC200
     FM162000 32007KT P6SM SCT150
     FM170100 08007KT P6SM SKC
     FM171700 VRB05KT P6SM BKN250=



000
FTUS45 KBOI 161720
TAFBNO
TAF
KBNO 161720Z 1618/1718 VRB05KT P6SM SKC
     FM162000 19010G15KT P6SM FEW200
     FM170200 VRB05KT P6SM SCT150 BKN250=



000
FTUS45 KBOI 161720
TAFBNO
TAF
KBNO 161720Z 1618/1718 VRB05KT P6SM SKC
     FM162000 19010G15KT P6SM FEW200
     FM170200 VRB05KT P6SM SCT150 BKN250=



000
FTUS45 KBOI 161138
TAFBOI
TAF
KBOI 161138Z 1612/1712 VRB10G20KT P6SM VCTS BKN150CB
      TEMPO 1612/1614 P6SM -SHRA BKN070
     FM161400 14005KT P6SM SCT070 BKN150
     FM161800 33008KT P6SM SCT150
     FM170200 13007KT P6SM FEW250=



000
FTUS45 KBOI 161138
TAFTWF
TAF
KTWF 161138Z 1612/1712 VRB05KT P6SM SCT120
     FM161900 33008KT P6SM SCT100
     FM170300 16007KT P6SM SKC=



000
FTUS45 KBOI 161138
TAFJER
TAF
KJER 161138Z 1612/1712 05010KT P6SM SCT120
     FM162000 27007KT P6SM SCT150
     FM170100 08007KT P6SM SKC=



000
FTUS45 KBOI 161138
TAFBKE
TAF
KBKE 161138Z 1612/1712 VRB05KT P6SM FEW100
     FM162000 13008KT P6SM SCT100
     FM170200 VRB05KT P6SM SKC=



000
FTUS45 KBOI 161138
TAFBNO
TAF
KBNO 161138Z 1612/1712 VRB05KT P6SM SCT100 BKN150
     FM162000 19010G15KT P6SM FEW150
     FM170200 VRB05KT P6SM SKC=



000
FTUS45 KBOI 161138
TAFMYL
TAF
KMYL 161138Z 1612/1712 VRB05KT P6SM BKN150=



000
FTUS45 KBOI 161138
TAFJER
TAF
KJER 161138Z 1612/1712 05010KT P6SM SCT120
     FM162000 27007KT P6SM SCT150
     FM170100 08007KT P6SM SKC=



000
FTUS45 KBOI 161138
TAFTWF
TAF
KTWF 161138Z 1612/1712 VRB05KT P6SM SCT120
     FM161900 33008KT P6SM SCT100
     FM170300 16007KT P6SM SKC=



000
FTUS45 KBOI 161138
TAFBNO
TAF
KBNO 161138Z 1612/1712 VRB05KT P6SM SCT100 BKN150
     FM162000 19010G15KT P6SM FEW150
     FM170200 VRB05KT P6SM SKC=



000
FTUS45 KBOI 161138
TAFMYL
TAF
KMYL 161138Z 1612/1712 VRB05KT P6SM BKN150=



000
FTUS45 KBOI 161138
TAFBOI
TAF
KBOI 161138Z 1612/1712 VRB10G20KT P6SM VCTS BKN150CB
      TEMPO 1612/1614 P6SM -SHRA BKN070
     FM161400 14005KT P6SM SCT070 BKN150
     FM161800 33008KT P6SM SCT150
     FM170200 13007KT P6SM FEW250=



000
FTUS45 KBOI 161138
TAFBKE
TAF
KBKE 161138Z 1612/1712 VRB05KT P6SM FEW100
     FM162000 13008KT P6SM SCT100
     FM170200 VRB05KT P6SM SKC=



000
FTUS45 KBOI 161025 AAC
TAFBOI
TAF AMD
KBOI 161025Z 1610/1706 13011KT P6SM VCSH BKN150
      TEMPO 1610/1612 VRB10G20KT P6SM -TSRA BKN100CB
     FM162100 33008KT P6SM SCT120
     FM170200 VRB03KT P6SM FEW150=



000
FTUS45 KBOI 160844 AAB
TAFBOI
TAF AMD
KBOI 160844Z 1609/1706 13011KT P6SM VCSH BKN150
      TEMPO 1609/1610 VRB10G20KT P6SM -TSRA BKN100CB
     FM162100 33008KT P6SM SCT120
     FM170200 VRB03KT P6SM FEW150=



000
FTUS45 KBOI 160844 AAB
TAFBOI
TAF AMD
KBOI 160844Z 1609/1706 13011KT P6SM VCSH BKN150
      TEMPO 1609/1610 VRB10G20KT P6SM -TSRA BKN100CB
     FM162100 33008KT P6SM SCT120
     FM170200 VRB03KT P6SM FEW150=



000
FTUS45 KBOI 160814 AAA
TAFBKE
TAF AMD
KBKE 160814Z 1608/1706 VRB05KT P6SM VCSH BKN120
      TEMPO 1608/1609 VRB15G25KT P6SM -TSRA BKN100CB
     FM161000 VRB05KT P6SM FEW100
     FM162000 13008KT P6SM SCT100
     FM170200 30007KT P6SM SKC=



000
FTUS45 KBOI 160814 AAA
TAFBKE
TAF AMD
KBKE 160814Z 1608/1706 VRB05KT P6SM VCSH BKN120
      TEMPO 1608/1609 VRB15G25KT P6SM -TSRA BKN100CB
     FM161000 VRB05KT P6SM FEW100
     FM162000 13008KT P6SM SCT100
     FM170200 30007KT P6SM SKC=



000
FTUS45 KBOI 160623 AAB
TAFBOI
TAF AMD
KBOI 160623Z 1606/1706 13011KT P6SM SCT150
     FM162100 33008KT P6SM SCT120
     FM170200 VRB03KT P6SM FEW150=



000
FTUS45 KBOI 160623 AAB
TAFBOI
TAF AMD
KBOI 160623Z 1606/1706 13011KT P6SM SCT150
     FM162100 33008KT P6SM SCT120
     FM170200 VRB03KT P6SM FEW150=



000
FTUS45 KBOI 160611 AAA
TAFBOI
TAF AMD
KBOI 160611Z 1606/1706 VRB06KT P6SM BKN150
      TEMPO 1606/1607 29010G25KT P6SM -RA OVC100
     FM160800 13007KT P6SM SCT150
     FM162100 33008KT P6SM SCT120
     FM170200 VRB03KT P6SM FEW150=



000
FTUS45 KBOI 160520
TAFBKE
TAF
KBKE 160520Z 1606/1706 VRB05KT P6SM FEW120
     FM162000 13008KT P6SM SCT100
     FM170200 30007KT P6SM SKC=



000
FTUS45 KBOI 160520
TAFJER
TAF
KJER 160520Z 1606/1706 07007KT P6SM SCT120
     FM161200 05010KT P6SM SCT120
     FM162000 27007KT P6SM SCT150
     FM170100 VRB03KT P6SM SKC=



000
FTUS45 KBOI 160520
TAFBNO
TAF
KBNO 160520Z 1606/1706 VRB03KT P6SM SKC
     FM161200 VRB05KT P6SM SCT100 BKN150
     FM162000 16007KT P6SM FEW150
     FM170200 VRB05KT P6SM SKC=



000
FTUS45 KBOI 160520
TAFMYL
TAF
KMYL 160520Z 1606/1706 VRB03KT P6SM FEW120 BKN150
     FM162000 19010KT P6SM BKN100
     FM170300 VRB03KT P6SM SKC=



000
FTUS45 KBOI 160520
TAFMYL
TAF

0=



000
FTUS45 KBOI 160520
TAFBOI
TAF
KBOI 160520Z 1606/1706 VRB06KT P6SM BKN150
     FM160800 13007KT P6SM SCT150
     FM162100 33008KT P6SM SCT120
     FM170200 VRB03KT P6SM FEW150=



000
FTUS45 KBOI 160520
TAFTWF
TAF
KTWF 160520Z 1606/1706 17010KT P6SM SCT120
     FM161900 34008KT P6SM SCT100
     FM170300 15006KT P6SM SKC=



000
FTUS45 KBOI 160520
TAFBKE
TAF
KBKE 160520Z 1606/1706 VRB05KT P6SM FEW120
     FM162000 13008KT P6SM SCT100
     FM170200 30007KT P6SM SKC=



000
FTUS45 KBOI 160520
TAFTWF
TAF
KTWF 160520Z 1606/1706 17010KT P6SM SCT120
     FM161900 34008KT P6SM SCT100
     FM170300 15006KT P6SM SKC=



000
FTUS45 KBOI 160520
TAFBOI
TAF
KBOI 160520Z 1606/1706 VRB06KT P6SM BKN150
     FM160800 13007KT P6SM SCT150
     FM162100 33008KT P6SM SCT120
     FM170200 VRB03KT P6SM FEW150=



000
FTUS45 KBOI 160520
TAFJER
TAF
KJER 160520Z 1606/1706 07007KT P6SM SCT120
     FM161200 05010KT P6SM SCT120
     FM162000 27007KT P6SM SCT150
     FM170100 VRB03KT P6SM SKC=



000
FTUS45 KBOI 160520
TAFBNO
TAF
KBNO 160520Z 1606/1706 VRB03KT P6SM SKC
     FM161200 VRB05KT P6SM SCT100 BKN150
     FM162000 16007KT P6SM FEW150
     FM170200 VRB05KT P6SM SKC=



000
FTUS45 KBOI 160520
TAFMYL
TAF
KMYL 160520Z 1606/1706 VRB03KT P6SM FEW120 BKN150
     FM162000 19010KT P6SM BKN100
     FM170300 VRB03KT P6SM SKC=



000
FTUS45 KBOI 160520
TAFMYL
TAF

0=



000
FTUS45 KBOI 160414 AAC
TAFBOI
TAF AMD
KBOI 160414Z 1604/1624 27010KT P6SM BKN150
     FM162100 30008KT P6SM SCT120=



000
FTUS45 KBOI 160414 AAC
TAFBOI
TAF AMD
KBOI 160414Z 1604/1624 27010KT P6SM BKN150
     FM162100 30008KT P6SM SCT120=



000
FTUS45 KBOI 160414 AAC
TAFBOI
TAF AMD
KBOI 160414Z 1604/1624 27010KT P6SM BKN150
     FM162100 30008KT P6SM SCT120=



000
FTUS45 KBOI 160414 AAC
TAFBOI
TAF AMD
KBOI 160414Z 1604/1624 27010KT P6SM BKN150
     FM162100 30008KT P6SM SCT120=



000
FTUS45 KBOI 160349 AAB
TAFBNO
TAF AMD
KBNO 160349Z 1604/1624 VRB06KT P6SM SCT120
     FM160700 25005KT P6SM BKN100
     FM161200 VRB05KT P6SM SCT100 BKN150
     FM162000 17008KT P6SM SCT120=



000
FTUS45 KBOI 160349 AAB
TAFBNO
TAF AMD
KBNO 160349Z 1604/1624 VRB06KT P6SM SCT120
     FM160700 25005KT P6SM BKN100
     FM161200 VRB05KT P6SM SCT100 BKN150
     FM162000 17008KT P6SM SCT120=



000
FTUS45 KBOI 160022 AAA
TAFBNO
TAF AMD
KBNO 160022Z 1600/1624 22012KT P6SM VCTS FEW090CB BKN120
     FM160700 25005KT P6SM BKN100
     FM161200 VRB05KT P6SM SCT100 BKN150
     FM162000 17008KT P6SM SCT120=



000
FTUS45 KBOI 160022 AAA
TAFBNO
TAF AMD
KBNO 160022Z 1600/1624 22012KT P6SM VCTS FEW090CB BKN120
     FM160700 25005KT P6SM BKN100
     FM161200 VRB05KT P6SM SCT100 BKN150
     FM162000 17008KT P6SM SCT120=



000
FTUS45 KBOI 152332
TAFJER
TAF
KJER 152332Z 1600/1624 01005KT P6SM SCT150
     FM160200 07007KT P6SM SCT120
     FM161200 05010KT P6SM BKN100
     FM162000 26007KT P6SM SCT100=



000
FTUS45 KBOI 152332
TAFMYL
TAF
KMYL 152332Z 1600/1624 19008KT P6SM SCT150
     FM160200 VRB03KT P6SM FEW120 BKN150
     FM161900 18008KT P6SM BKN100=



000
FTUS45 KBOI 152332
TAFBKE
TAF
KBKE 152332Z 1600/1624 14010KT P6SM BKN120
     FM160300 VRB03KT P6SM SCT120
     FM162000 14008KT P6SM SCT100=



000
FTUS45 KBOI 152332
TAFJER
TAF
KJER 152332Z 1600/1624 01005KT P6SM SCT150
     FM160200 07007KT P6SM SCT120
     FM161200 05010KT P6SM BKN100
     FM162000 26007KT P6SM SCT100=



000
FTUS45 KBOI 152332
TAFTWF
TAF
KTWF 152332Z 1600/1624 01008KT P6SM SCT150
     FM160300 17008KT P6SM SCT120
     FM161200 14005KT P6SM BKN120
     FM161900 34008KT P6SM SCT100=



000
FTUS45 KBOI 152332
TAFBNO
TAF
KBNO 152332Z 1600/1624 22012KT P6SM BKN120
     FM160700 25005KT P6SM BKN100
     FM161200 VRB05KT P6SM SCT100 BKN150
     FM162000 17008KT P6SM SCT120=



000
FTUS45 KBOI 152332
TAFMYL
TAF
KMYL 152332Z 1600/1624 19008KT P6SM SCT150
     FM160200 VRB03KT P6SM FEW120 BKN150
     FM161900 18008KT P6SM BKN100=



000
FTUS45 KBOI 152332
TAFBOI
TAF
KBOI 152332Z 1600/1624 35007KT P6SM SCT150
     FM160300 13005KT P6SM BKN150
     FM162100 30008KT P6SM SCT120=



000
FTUS45 KBOI 152257 AAB
TAFBNO
TAF AMD
KBNO 152257Z 1523/1618 22012KT P6SM SKC
     FM160200 21008KT P6SM VCTS SCT100CB BKN120
     FM160700 25005KT P6SM VCSH OVC100
     FM161200 VRB05KT P6SM SCT100 BKN200=



000
FTUS45 KBOI 152257 AAB
TAFBNO
TAF AMD
KBNO 152257Z 1523/1618 22012KT P6SM SKC
     FM160200 21008KT P6SM VCTS SCT100CB BKN120
     FM160700 25005KT P6SM VCSH OVC100
     FM161200 VRB05KT P6SM SCT100 BKN200=



000
FTUS45 KBOI 152101 AAA
TAFBNO
TAF AMD
KBNO 152101Z 1521/1618 17012G20KT P6SM SKC
     FM160200 21008KT P6SM VCTS SCT100CB BKN120
     FM160700 25005KT P6SM VCSH OVC100
     FM161200 VRB05KT P6SM SCT100 BKN200=



000
FTUS45 KBOI 152101 AAA
TAFBNO
TAF AMD
KBNO 152101Z 1521/1618 17012G20KT P6SM SKC
     FM160200 21008KT P6SM VCTS SCT100CB BKN120
     FM160700 25005KT P6SM VCSH OVC100
     FM161200 VRB05KT P6SM SCT100 BKN200=



000
FTUS45 KBOI 151720
TAFTWF
TAF
KTWF 151720Z 1518/1618 VRB04KT P6SM FEW140
     FM152100 34007KT P6SM SCT140
     FM160300 17008KT P6SM SCT140
     FM161200 14005KT P6SM BKN140=



000
FTUS45 KBOI 151720
TAFMYL
TAF
KMYL 151720Z 1518/1618 21005KT P6SM SKC
     FM152100 19007KT P6SM FEW200
     FM160200 VRB03KT P6SM FEW120 BKN200
     FM160800 VRB03KT P6SM VCSH BKN080 OVC120=



000
FTUS45 KBOI 151720
TAFTWF
TAF
KTWF 151720Z 1518/1618 VRB04KT P6SM FEW140
     FM152100 34007KT P6SM SCT140
     FM160300 17008KT P6SM SCT140
     FM161200 14005KT P6SM BKN140=



000
FTUS45 KBOI 151720
TAFBOI
TAF
KBOI 151720Z 1518/1618 VRB03KT P6SM SCT150
     FM152000 34006KT P6SM SCT150
     FM160300 13005KT P6SM BKN150=



000
FTUS45 KBOI 151720
TAFJER
TAF
KJER 151720Z 1518/1618 06008KT P6SM FEW140
     FM152000 27007KT P6SM SCT140
     FM160200 07007KT P6SM SCT140
     FM161200 05010KT P6SM BKN140=



000
FTUS45 KBOI 151720
TAFBOI
TAF
KBOI 151720Z 1518/1618 VRB03KT P6SM SCT150
     FM152000 34006KT P6SM SCT150
     FM160300 13005KT P6SM BKN150=



000
FTUS45 KBOI 151720
TAFMYL
TAF
KMYL 151720Z 1518/1618 21005KT P6SM SKC
     FM152100 19007KT P6SM FEW200
     FM160200 VRB03KT P6SM FEW120 BKN200
     FM160800 VRB03KT P6SM VCSH BKN080 OVC120=



000
FTUS45 KBOI 151720
TAFBNO
TAF
KBNO 151720Z 1518/1618 VRB05KT P6SM SCT120
     FM160200 21008KT P6SM VCTS SCT100CB BKN120 PROB30 1603/1607
      VRB35KT -TSRA OVC070CB
     FM160700 25005KT P6SM VCSH OVC100
     FM161200 VRB05KT P6SM SCT100 BKN200=



000
FTUS45 KBOI 151720
TAFBKE
TAF
KBKE 151720Z 1518/1618 VRB03KT P6SM FEW120
     FM152000 13007KT P6SM SCT120
     FM160300 VRB03KT P6SM SCT120
     FM160600 VRB03KT P6SM OVC100=



000
FTUS45 KBOI 151720
TAFBNO
TAF
KBNO 151720Z 1518/1618 VRB05KT P6SM SCT120
     FM160200 21008KT P6SM VCTS SCT100CB BKN120 PROB30 1603/1607
      VRB35KT -TSRA OVC070CB
     FM160700 25005KT P6SM VCSH OVC100
     FM161200 VRB05KT P6SM SCT100 BKN200=



000
FTUS45 KBOI 151720
TAFBKE
TAF
KBKE 151720Z 1518/1618 VRB03KT P6SM FEW120
     FM152000 13007KT P6SM SCT120
     FM160300 VRB03KT P6SM SCT120
     FM160600 VRB03KT P6SM OVC100=



000
FTUS45 KBOI 151720
TAFJER
TAF
KJER 151720Z 1518/1618 06008KT P6SM FEW140
     FM152000 27007KT P6SM SCT140
     FM160200 07007KT P6SM SCT140
     FM161200 05010KT P6SM BKN140=



    US Dept of Commerce
    National Oceanic and Atmospheric Administration
    National Weather Service
    1325 East West Highway
    Silver Spring, MD 20910
    Page Author: NWS Internet Services Team
Disclaimer
Information Quality
Credits
Glossary
Privacy Policy
Freedom of Information Act (FOIA)
About Us
Career Opportunities